createdAt,value
2022-07-27T00:00:56.074Z,1.90
2022-07-27T00:03:23.372Z,1.60
2022-07-27T00:05:50.874Z,2.00
2022-07-27T00:08:20.353Z,2.20
2022-07-27T00:10:47.094Z,2.20
2022-07-27T00:13:13.800Z,1.67
2022-07-27T00:15:40.565Z,1.70
2022-07-27T00:18:07.401Z,1.70
2022-07-27T00:20:34.466Z,1.83
2022-07-27T00:23:01.252Z,1.70
2022-07-27T00:25:28.173Z,1.90
2022-07-27T00:27:59.059Z,1.90
2022-07-27T00:30:26.603Z,2.10
2022-07-27T00:32:53.880Z,2.53
2022-07-27T00:35:20.790Z,1.93
2022-07-27T00:37:47.496Z,1.57
2022-07-27T00:40:15.157Z,1.60
2022-07-27T00:42:42.009Z,2.10
2022-07-27T00:45:09.337Z,1.80
2022-07-27T00:47:36.249Z,1.90
2022-07-27T00:50:04.500Z,1.77
2022-07-27T00:52:31.456Z,1.83
2022-07-27T00:54:59.468Z,1.90
2022-07-27T00:57:30.490Z,1.90
2022-07-27T00:59:57.234Z,2.30
2022-07-27T01:02:24.047Z,1.43
2022-07-27T01:04:53.707Z,1.63
2022-07-27T01:07:24.379Z,1.90
2022-07-27T01:09:57.483Z,1.43
2022-07-27T01:12:32.232Z,1.53
2022-07-27T01:15:00.180Z,2.00
2022-07-27T01:17:30.701Z,2.47
2022-07-27T01:19:59.439Z,2.30
2022-07-27T01:22:26.196Z,2.00
2022-07-27T01:24:53.104Z,1.60
2022-07-27T01:27:19.874Z,1.80
2022-07-27T01:29:46.771Z,1.90
2022-07-27T01:32:13.600Z,1.90
2022-07-27T01:34:40.728Z,1.97
2022-07-27T01:37:08.072Z,2.17
2022-07-27T01:39:34.919Z,1.70
2022-07-27T01:42:02.136Z,1.80
2022-07-27T01:44:29.042Z,2.00
2022-07-27T01:46:55.833Z,1.80
2022-07-27T01:49:22.778Z,1.60
2022-07-27T01:51:49.575Z,2.23
2022-07-27T01:54:16.481Z,1.80
2022-07-27T01:56:43.417Z,1.90
2022-07-27T01:59:16.174Z,2.00
2022-07-27T02:01:44.529Z,1.80
2022-07-27T02:04:11.700Z,1.63
2022-07-27T02:06:39.306Z,2.00
2022-07-27T02:09:06.509Z,1.80
2022-07-27T02:11:51.666Z,1.70
2022-07-27T02:14:18.982Z,1.87
2022-07-27T02:16:48.269Z,2.10
2022-07-27T02:19:17.125Z,1.80
2022-07-27T02:21:45.182Z,2.10
2022-07-27T02:24:12.135Z,1.97
2022-07-27T02:26:38.910Z,2.07
2022-07-27T02:29:05.705Z,1.93
2022-07-27T02:31:32.885Z,1.80
2022-07-27T02:34:00.132Z,1.70
2022-07-27T02:36:29.194Z,1.70
2022-07-27T02:38:56.843Z,1.60
2022-07-27T02:41:23.726Z,1.83
2022-07-27T02:43:50.613Z,1.67
2022-07-27T02:46:17.762Z,1.57
2022-07-27T02:48:44.925Z,1.80
2022-07-27T02:51:11.775Z,1.70
2022-07-27T02:53:38.523Z,1.70
2022-07-27T02:56:05.369Z,1.90
2022-07-27T02:58:32.509Z,2.47
2022-07-27T03:00:59.291Z,1.87
2022-07-27T03:03:33.276Z,1.90
2022-07-27T03:06:03.549Z,1.70
2022-07-27T03:08:30.687Z,1.77
2022-07-27T03:10:57.792Z,2.00
2022-07-27T03:13:24.595Z,2.10
2022-07-27T03:15:51.650Z,1.80
2022-07-27T03:18:34.080Z,1.70
2022-07-27T03:21:00.846Z,2.00
2022-07-27T03:23:27.541Z,1.63
2022-07-27T03:25:54.330Z,1.97
2022-07-27T03:28:21.030Z,2.00
2022-07-27T03:30:47.812Z,1.73
2022-07-27T03:33:14.538Z,1.90
2022-07-27T03:35:41.332Z,2.20
2022-07-27T03:38:08.423Z,1.97
2022-07-27T03:40:38.426Z,2.20
2022-07-27T03:43:05.142Z,2.20
2022-07-27T03:45:32.000Z,2.43
2022-07-27T03:47:58.765Z,2.20
2022-07-27T03:50:25.524Z,2.57
2022-07-27T03:52:52.640Z,2.30
2022-07-27T03:55:20.606Z,2.30
2022-07-27T03:57:47.406Z,2.30
2022-07-27T04:00:15.699Z,2.47
2022-07-27T04:02:42.749Z,2.20
2022-07-27T04:05:10.772Z,2.03
2022-07-27T04:07:37.852Z,2.23
2022-07-27T04:10:05.811Z,2.60
2022-07-27T04:12:38.507Z,2.97
2022-07-27T04:15:07.068Z,2.70
2022-07-27T04:17:55.466Z,2.63
2022-07-27T04:20:20.671Z,2.80
2022-07-27T04:22:48.293Z,2.43
2022-07-27T04:25:15.048Z,2.83
2022-07-27T04:27:41.787Z,2.80
2022-07-27T04:30:09.901Z,2.40
2022-07-27T04:32:36.767Z,2.80
2022-07-27T04:35:03.796Z,2.43
2022-07-27T04:37:32.332Z,2.70
2022-07-27T04:39:59.292Z,2.53
2022-07-27T04:42:26.538Z,2.63
2022-07-27T04:44:53.221Z,2.47
2022-07-27T04:47:20.374Z,2.40
2022-07-27T04:49:47.332Z,2.90
2022-07-27T04:52:17.623Z,2.50
2022-07-27T04:54:45.970Z,2.27
2022-07-27T04:57:12.769Z,2.57
2022-07-27T04:59:39.501Z,2.87
2022-07-27T05:02:06.196Z,2.53
2022-07-27T05:04:32.963Z,2.70
2022-07-27T05:06:59.981Z,3.20
2022-07-27T05:09:26.797Z,2.47
2022-07-27T05:11:53.547Z,2.63
2022-07-27T05:14:21.743Z,2.97
2022-07-27T05:16:49.168Z,2.50
2022-07-27T05:19:16.273Z,2.60
2022-07-27T05:21:43.488Z,2.83
2022-07-27T05:24:10.354Z,3.07
2022-07-27T05:26:37.741Z,2.83
2022-07-27T05:29:05.133Z,2.70
2022-07-27T05:31:31.862Z,2.80
2022-07-27T05:33:58.838Z,2.67
2022-07-27T05:36:26.052Z,2.93
2022-07-27T05:38:52.758Z,2.50
2022-07-27T05:41:27.008Z,2.60
2022-07-27T05:43:55.049Z,2.63
2022-07-27T05:46:22.824Z,2.87
2022-07-27T05:48:50.600Z,2.60
2022-07-27T05:51:17.447Z,2.63
2022-07-27T05:53:44.253Z,2.30
2022-07-27T05:56:11.408Z,1.92
2022-07-27T05:58:38.126Z,2.28
2022-07-27T06:01:04.937Z,2.03
2022-07-27T06:03:31.785Z,2.13
2022-07-27T06:06:17.489Z,2.33
2022-07-27T06:08:44.771Z,2.72
2022-07-27T06:11:11.774Z,2.33
2022-07-27T06:13:41.836Z,2.17
2022-07-27T06:16:09.896Z,3.05
2022-07-27T06:18:36.879Z,2.60
2022-07-27T06:21:04.600Z,2.50
2022-07-27T06:23:31.377Z,2.00
2022-07-27T06:25:58.278Z,1.98
2022-07-27T06:28:25.091Z,1.98
2022-07-27T06:30:53.556Z,2.00
2022-07-27T06:33:27.738Z,1.92
2022-07-27T06:35:57.117Z,2.00
2022-07-27T06:38:25.569Z,3.08
2022-07-27T06:40:53.098Z,2.30
2022-07-27T06:43:24.241Z,2.30
2022-07-27T06:45:51.483Z,2.08
2022-07-27T06:48:18.217Z,2.05
2022-07-27T06:50:45.052Z,2.25
2022-07-27T06:53:11.751Z,2.05
2022-07-27T06:55:38.594Z,2.40
2022-07-27T06:58:05.671Z,2.40
2022-07-27T07:00:32.527Z,1.80
2022-07-27T07:03:02.785Z,1.97
2022-07-27T07:05:31.219Z,2.30
2022-07-27T07:07:58.668Z,2.10
2022-07-27T07:10:26.495Z,1.80
2022-07-27T07:12:57.157Z,2.00
2022-07-27T07:15:26.211Z,1.70
2022-07-27T07:17:54.177Z,1.90
2022-07-27T07:20:20.962Z,1.43
2022-07-27T07:22:47.690Z,1.60
2022-07-27T07:25:14.469Z,1.63
2022-07-27T07:27:41.281Z,1.67
2022-07-27T07:30:08.730Z,2.10
2022-07-27T07:32:35.424Z,1.87
2022-07-27T07:35:04.002Z,2.03
2022-07-27T07:37:33.893Z,1.73
2022-07-27T07:40:18.874Z,1.40
2022-07-27T07:42:50.006Z,1.47
2022-07-27T07:45:16.858Z,1.47
2022-07-27T07:47:43.811Z,1.50
2022-07-27T07:50:11.017Z,1.70
2022-07-27T07:52:37.729Z,1.40
2022-07-27T07:55:05.318Z,1.80
2022-07-27T07:57:32.164Z,1.70
2022-07-27T07:59:58.959Z,1.60
2022-07-27T08:02:25.795Z,1.80
2022-07-27T08:04:55.504Z,1.63
2022-07-27T08:07:22.235Z,1.67
2022-07-27T08:09:48.992Z,1.50
2022-07-27T08:12:15.771Z,1.33
2022-07-27T08:14:42.486Z,1.60
2022-07-27T08:17:09.192Z,1.45
2022-07-27T08:19:40.115Z,1.40
2022-07-27T08:22:07.154Z,1.10
2022-07-27T08:24:34.138Z,1.50
2022-07-27T08:27:01.409Z,1.30
2022-07-27T08:29:36.533Z,1.20
2022-07-27T08:32:06.032Z,1.30
2022-07-27T08:34:33.187Z,1.20
2022-07-27T08:36:59.969Z,1.30
2022-07-27T08:40:20.021Z,1.20
2022-07-27T08:42:13.521Z,1.20
2022-07-27T08:44:41.251Z,1.30
2022-07-27T08:47:10.490Z,1.10
2022-07-27T08:49:43.531Z,1.20
2022-07-27T08:52:11.797Z,1.55
2022-07-27T08:54:40.478Z,1.35
2022-07-27T08:57:08.876Z,1.60
2022-07-27T08:59:36.141Z,1.60
2022-07-27T09:02:05.095Z,1.50
2022-07-27T09:04:34.756Z,1.38
2022-07-27T09:07:01.543Z,1.33
2022-07-27T09:09:28.262Z,1.30
2022-07-27T09:12:11.247Z,1.30
2022-07-27T09:14:40.274Z,1.33
2022-07-27T09:20:19.866Z,1.30
2022-07-27T09:22:52.320Z,1.45
2022-07-27T09:26:01.654Z,1.60
2022-07-27T09:28:29.869Z,1.30
2022-07-27T09:31:09.282Z,1.48
2022-07-27T09:33:42.670Z,1.40
2022-07-27T09:36:09.984Z,1.40
2022-07-27T09:38:36.879Z,1.25
2022-07-27T09:41:07.881Z,1.30
2022-07-27T09:46:38.304Z,1.30
2022-07-27T09:49:27.067Z,1.17
2022-07-27T09:52:01.394Z,1.50
2022-07-27T09:54:43.331Z,1.33
2022-07-27T09:57:10.660Z,1.40
2022-07-27T09:59:37.365Z,1.17
2022-07-27T10:02:05.209Z,1.20
2022-07-27T10:04:33.635Z,1.10
2022-07-27T10:07:03.319Z,1.30
2022-07-27T10:09:33.350Z,1.10
2022-07-27T10:12:01.630Z,1.25
2022-07-27T10:14:28.368Z,1.17
2022-07-27T10:16:56.083Z,0.90
2022-07-27T10:19:47.067Z,1.25
2022-07-27T10:22:15.024Z,1.50
2022-07-27T10:24:41.847Z,1.35
2022-07-27T10:27:30.046Z,1.15
2022-07-27T10:29:57.779Z,1.08
2022-07-27T10:32:26.168Z,1.38
2022-07-27T10:34:53.402Z,1.65
2022-07-27T10:37:28.274Z,1.30
2022-07-27T10:40:16.086Z,1.48
2022-07-27T10:42:46.130Z,1.63
2022-07-27T10:45:18.346Z,1.65
2022-07-27T10:47:47.422Z,1.65
2022-07-27T10:50:17.124Z,1.45
2022-07-27T10:53:00.087Z,1.65
2022-07-27T10:55:30.318Z,1.60
2022-07-27T10:58:02.552Z,1.50
2022-07-27T11:00:55.459Z,1.52
2022-07-27T11:03:27.981Z,1.63
2022-07-27T11:06:06.718Z,1.60
2022-07-27T11:08:47.332Z,1.42
2022-07-27T11:11:24.678Z,1.40
2022-07-27T11:13:57.693Z,2.05
2022-07-27T11:16:26.797Z,1.55
2022-07-27T11:19:01.416Z,1.67
2022-07-27T11:21:38.955Z,1.67
2022-07-27T11:24:14.788Z,2.00
2022-07-27T11:26:44.594Z,1.85
2022-07-27T11:29:14.278Z,1.45
2022-07-27T11:31:59.201Z,1.60
2022-07-27T11:34:35.527Z,1.38
2022-07-27T11:37:05.437Z,1.60
2022-07-27T11:42:23.490Z,2.05
2022-07-27T11:44:52.842Z,1.90
2022-07-27T11:47:21.712Z,1.90
2022-07-27T11:49:48.604Z,1.50
2022-07-27T11:52:18.492Z,1.63
2022-07-27T11:54:51.658Z,1.67
2022-07-27T11:57:22.691Z,2.05
2022-07-27T11:59:49.510Z,2.08
2022-07-27T12:02:19.805Z,1.90
2022-07-27T12:04:48.441Z,1.70
2022-07-27T12:07:21.893Z,1.80
2022-07-27T12:09:53.233Z,1.75
2022-07-27T12:12:27.967Z,1.88
2022-07-27T12:14:58.694Z,2.03
2022-07-27T12:17:36.509Z,1.60
2022-07-27T12:20:03.293Z,1.90
2022-07-27T12:22:44.846Z,1.88
2022-07-27T12:25:32.703Z,1.60
2022-07-27T12:28:06.737Z,2.00
2022-07-27T12:30:48.489Z,1.73
2022-07-27T12:33:36.884Z,1.70
2022-07-27T12:36:11.392Z,1.70
2022-07-27T12:38:51.136Z,2.03
2022-07-27T12:41:32.606Z,1.90
2022-07-27T12:44:10.837Z,1.80
2022-07-27T12:47:01.957Z,1.50
2022-07-27T12:49:40.772Z,1.58
2022-07-27T12:52:11.087Z,1.50
2022-07-27T12:54:38.326Z,1.85
2022-07-27T12:57:05.086Z,1.73
2022-07-27T12:59:31.853Z,1.35
2022-07-27T13:01:58.696Z,1.50
2022-07-27T13:04:25.545Z,1.40
2022-07-27T13:06:52.241Z,1.75
2022-07-27T13:09:18.977Z,1.55
2022-07-27T13:11:48.101Z,1.60
2022-07-27T13:14:15.318Z,2.20
2022-07-27T13:16:42.109Z,1.70
2022-07-27T13:19:08.957Z,1.60
2022-07-27T13:21:35.843Z,1.50
2022-07-27T13:24:02.799Z,1.60
2022-07-27T13:26:29.513Z,1.60
2022-07-27T13:28:56.232Z,1.60
2022-07-27T13:31:23.052Z,1.70
2022-07-27T13:33:49.863Z,1.67
2022-07-27T13:36:16.740Z,1.70
2022-07-27T13:38:43.990Z,1.90
2022-07-27T13:41:10.782Z,2.00
2022-07-27T13:43:37.597Z,2.17
2022-07-27T13:46:05.001Z,1.98
2022-07-27T13:48:32.563Z,1.90
2022-07-27T13:50:59.362Z,2.20
2022-07-27T13:53:26.139Z,1.92
2022-07-27T13:55:53.005Z,2.67
2022-07-27T13:58:19.803Z,2.80
2022-07-27T14:00:46.852Z,2.05
2022-07-27T14:03:13.608Z,1.80
2022-07-27T14:05:45.411Z,2.60
2022-07-27T14:08:16.444Z,1.70
2022-07-27T14:10:43.185Z,1.75
2022-07-27T14:13:12.692Z,2.00
2022-07-27T14:15:52.967Z,1.70
2022-07-27T14:18:31.121Z,2.05
2022-07-27T14:21:01.286Z,1.60
2022-07-27T14:23:28.951Z,1.85
2022-07-27T14:25:57.440Z,1.70
2022-07-27T14:28:25.385Z,2.22
2022-07-27T14:30:53.653Z,2.00
2022-07-27T14:33:20.889Z,1.80
2022-07-27T14:35:48.115Z,1.83
2022-07-27T14:38:26.067Z,1.98
2022-07-27T14:40:57.613Z,1.80
2022-07-27T14:43:24.428Z,1.50
2022-07-27T14:45:51.118Z,1.80
2022-07-27T14:48:25.441Z,1.98
2022-07-27T14:50:59.675Z,1.80
2022-07-27T14:53:26.405Z,1.80
2022-07-27T14:55:58.138Z,1.58
2022-07-27T14:58:24.827Z,1.90
2022-07-27T15:00:52.684Z,1.40
2022-07-27T15:03:20.946Z,1.70
2022-07-27T15:05:49.598Z,1.70
2022-07-27T15:08:19.844Z,3.05
2022-07-27T15:10:47.220Z,1.60
2022-07-27T15:13:14.753Z,1.60
2022-07-27T15:15:41.887Z,1.40
2022-07-27T15:18:08.963Z,1.58
2022-07-27T15:20:35.891Z,1.60
2022-07-27T15:23:06.471Z,1.50
2022-07-27T15:25:33.784Z,1.60
2022-07-27T15:28:01.031Z,1.45
2022-07-27T15:30:27.868Z,1.60
2022-07-27T15:32:54.629Z,1.70
2022-07-27T15:35:21.391Z,1.73
2022-07-27T15:37:54.647Z,1.92
2022-07-27T15:40:37.340Z,1.67
2022-07-27T15:43:10.716Z,1.35
2022-07-27T15:45:39.170Z,1.55
2022-07-27T15:48:08.273Z,1.60
2022-07-27T15:50:36.123Z,1.80
2022-07-27T15:53:02.875Z,1.40
2022-07-27T15:55:29.659Z,1.33
2022-07-27T15:57:56.347Z,1.50
2022-07-27T16:00:23.491Z,1.40
2022-07-27T16:02:52.519Z,1.67
2022-07-27T16:05:20.612Z,1.35
2022-07-27T16:07:47.473Z,1.30
2022-07-27T16:10:14.220Z,1.40
2022-07-27T16:12:40.957Z,1.58
2022-07-27T16:15:08.355Z,1.40
2022-07-27T16:17:35.150Z,1.40
2022-07-27T16:20:01.876Z,1.50
2022-07-27T16:22:30.177Z,1.40
2022-07-27T16:24:56.898Z,1.40
2022-07-27T16:27:23.651Z,1.58
2022-07-27T16:29:50.369Z,2.20
2022-07-27T16:32:17.176Z,1.85
2022-07-27T16:34:43.954Z,3.38
2022-07-27T16:37:10.698Z,1.98
2022-07-27T16:39:37.899Z,1.70
2022-07-27T16:42:04.722Z,2.05
2022-07-27T16:44:31.527Z,2.20
2022-07-27T16:46:58.507Z,2.30
2022-07-27T16:49:33.633Z,2.10
2022-07-27T16:52:04.616Z,1.83
2022-07-27T16:54:35.599Z,1.65
2022-07-27T16:57:06.391Z,1.70
2022-07-27T16:59:33.111Z,1.70
2022-07-27T17:02:00.022Z,2.00
2022-07-27T17:04:27.840Z,1.73
2022-07-27T17:06:54.723Z,1.55
2022-07-27T17:09:21.463Z,1.40
2022-07-27T17:11:48.161Z,1.33
2022-07-27T17:14:18.273Z,1.58
2022-07-27T17:16:51.712Z,1.42
2022-07-27T17:19:26.623Z,1.40
2022-07-27T17:21:53.431Z,1.60
2022-07-27T17:24:20.352Z,1.58
2022-07-27T17:26:47.070Z,1.58
2022-07-27T17:29:14.125Z,1.60
2022-07-27T17:31:41.215Z,1.80
2022-07-27T17:34:08.158Z,2.70
2022-07-27T17:36:34.885Z,2.10
2022-07-27T17:39:02.372Z,2.85
2022-07-27T17:41:29.123Z,2.30
2022-07-27T17:43:56.592Z,1.90
2022-07-27T17:46:24.641Z,1.80
2022-07-27T17:48:53.305Z,1.55
2022-07-27T17:51:23.138Z,1.40
2022-07-27T17:53:50.125Z,1.70
2022-07-27T17:56:17.198Z,1.35
2022-07-27T17:58:43.955Z,1.58
2022-07-27T18:01:10.796Z,1.40
2022-07-27T18:03:37.655Z,1.40
2022-07-27T18:06:04.688Z,1.40
2022-07-27T18:08:31.536Z,1.30
2022-07-27T18:10:58.650Z,1.10
2022-07-27T18:16:07.975Z,1.48
2022-07-27T18:18:36.221Z,1.40
2022-07-27T18:21:03.553Z,1.50
2022-07-27T18:23:30.799Z,1.50
2022-07-27T18:25:57.711Z,1.40
2022-07-27T18:28:25.054Z,1.95
2022-07-27T18:30:52.990Z,1.52
2022-07-27T18:33:20.389Z,1.42
2022-07-27T18:35:47.629Z,1.40
2022-07-27T18:38:14.851Z,1.70
2022-07-27T18:40:45.888Z,1.23
2022-07-27T18:43:12.889Z,1.70
2022-07-27T18:45:40.664Z,1.60
2022-07-27T18:48:11.673Z,1.35
2022-07-27T18:50:40.153Z,1.40
2022-07-27T18:53:07.595Z,1.40
2022-07-27T18:55:34.287Z,1.45
2022-07-27T18:58:01.003Z,1.35
2022-07-27T19:00:28.599Z,1.33
2022-07-27T19:02:58.181Z,1.30
2022-07-27T19:05:30.015Z,1.50
2022-07-27T19:08:05.189Z,1.60
2022-07-27T19:10:33.835Z,1.52
2022-07-27T19:13:00.734Z,1.60
2022-07-27T19:15:27.584Z,1.50
2022-07-27T19:17:54.320Z,1.60
2022-07-27T19:20:21.206Z,1.70
2022-07-27T19:22:49.881Z,1.57
2022-07-27T19:25:16.840Z,1.50
2022-07-27T19:27:43.777Z,1.60
2022-07-27T19:30:12.308Z,1.60
2022-07-27T19:32:39.603Z,1.70
2022-07-27T19:35:07.849Z,1.60
2022-07-27T19:37:35.581Z,1.80
2022-07-27T19:40:20.294Z,1.43
2022-07-27T19:42:49.839Z,1.83
2022-07-27T19:45:16.694Z,1.50
2022-07-27T19:47:43.394Z,1.50
2022-07-27T19:50:10.542Z,1.70
2022-07-27T19:52:37.280Z,1.70
2022-07-27T19:55:06.478Z,1.77
2022-07-27T19:57:33.310Z,1.70
2022-07-27T20:00:01.037Z,1.50
2022-07-27T20:02:27.975Z,1.70
2022-07-27T20:04:54.741Z,1.60
2022-07-27T20:07:21.723Z,1.70
2022-07-27T20:09:48.552Z,1.70
2022-07-27T20:12:15.450Z,1.80
2022-07-27T20:14:43.485Z,1.63
2022-07-27T20:17:10.266Z,1.63
2022-07-27T20:19:37.059Z,1.70
2022-07-27T20:22:03.869Z,1.50
2022-07-27T20:24:30.774Z,1.60
2022-07-27T20:26:57.694Z,1.70
2022-07-27T20:29:24.830Z,1.70
2022-07-27T20:31:51.647Z,1.80
2022-07-27T20:34:23.249Z,2.00
2022-07-27T20:36:50.144Z,1.80
2022-07-27T20:39:17.739Z,1.50
2022-07-27T20:41:44.712Z,1.40
2022-07-27T20:44:11.564Z,1.50
2022-07-27T20:46:38.498Z,1.73
2022-07-27T20:49:05.338Z,1.67
2022-07-27T20:51:32.165Z,1.70
2022-07-27T20:53:58.928Z,1.80
2022-07-27T20:56:25.640Z,3.60
2022-07-27T20:58:52.444Z,5.30
2022-07-27T21:01:19.277Z,1.53
2022-07-27T21:03:46.158Z,1.90
2022-07-27T21:06:12.863Z,1.50
2022-07-27T21:08:44.369Z,1.60
2022-07-27T21:11:13.606Z,1.50
2022-07-27T21:13:40.825Z,1.60
2022-07-27T21:16:07.594Z,1.67
2022-07-27T21:18:34.495Z,1.50
2022-07-27T21:21:01.313Z,1.93
2022-07-27T21:23:46.569Z,1.60
2022-07-27T21:26:15.436Z,1.80
2022-07-27T21:28:47.902Z,1.57
2022-07-27T21:31:14.679Z,2.03
2022-07-27T21:33:41.414Z,1.87
2022-07-27T21:36:08.221Z,1.90
2022-07-27T21:38:34.924Z,1.70
2022-07-27T21:41:01.637Z,1.70
2022-07-27T21:43:28.364Z,1.70
2022-07-27T21:45:55.120Z,1.80
2022-07-27T21:48:21.874Z,1.60
2022-07-27T21:50:48.585Z,1.43
2022-07-27T21:53:15.390Z,1.30
2022-07-27T21:55:42.078Z,1.60
2022-07-27T21:58:12.102Z,1.70
2022-07-27T22:00:39.365Z,1.40
2022-07-27T22:03:06.950Z,1.53
2022-07-27T22:05:34.117Z,1.70
2022-07-27T22:08:01.477Z,1.43
2022-07-27T22:10:29.793Z,1.60
2022-07-27T22:13:00.710Z,1.80
2022-07-27T22:15:28.263Z,1.83
2022-07-27T22:17:55.108Z,2.00
2022-07-27T22:20:22.026Z,1.70
2022-07-27T22:22:49.930Z,2.00
2022-07-27T22:25:17.328Z,1.70
2022-07-27T22:27:44.224Z,1.80
2022-07-27T22:30:11.141Z,1.90
2022-07-27T22:32:37.840Z,1.77
2022-07-27T22:35:05.646Z,1.90
2022-07-27T22:37:32.361Z,1.80
2022-07-27T22:39:59.139Z,1.63
2022-07-27T22:42:25.898Z,1.60
2022-07-27T22:44:53.253Z,1.60
2022-07-27T22:47:19.976Z,1.70
2022-07-27T22:49:47.364Z,1.80
2022-07-27T22:52:14.194Z,1.40
2022-07-27T22:54:41.929Z,1.70
2022-07-27T22:57:08.676Z,1.90
2022-07-27T22:59:35.961Z,1.80
2022-07-27T23:02:03.534Z,1.73
2022-07-27T23:04:30.507Z,1.57
2022-07-27T23:06:57.756Z,1.60
2022-07-27T23:09:25.175Z,1.90
2022-07-27T23:11:53.018Z,1.43
2022-07-27T23:14:19.760Z,1.70
2022-07-27T23:16:46.682Z,1.90
2022-07-27T23:19:13.472Z,1.70
2022-07-27T23:21:41.883Z,2.00
2022-07-27T23:24:11.177Z,2.03
2022-07-27T23:26:40.298Z,1.50
2022-07-27T23:29:07.186Z,1.70
2022-07-27T23:31:34.267Z,2.27
2022-07-27T23:34:01.095Z,2.10
2022-07-27T23:36:27.913Z,1.60
2022-07-27T23:38:54.770Z,1.83
2022-07-27T23:41:21.544Z,1.93
2022-07-27T23:43:48.361Z,1.83
2022-07-27T23:46:15.124Z,1.70
2022-07-27T23:48:42.164Z,1.60
2022-07-27T23:51:09.150Z,1.50
2022-07-27T23:53:35.913Z,1.77
2022-07-27T23:56:02.638Z,2.23
2022-07-27T23:58:29.661Z,1.87
